Time;durP1;ratioP1;P1;durP2;ratioP2;P2;SDS_P1;SDS_P2;PMS_P1;PMS_P2;Temp;Humidity;BMP_temperature;BMP_pressure;BME280_temperature;BME280_humidity;BME280_pressure;Samples;Min_cycle;Max_cycle;Signal;HPM_P1;HPM_P2
2023/07/10 00:01:27;;;;;;;;;3.00;3.00;;;;;23.48;51.64;101877.47;5016204;28;45621;-40
2023/07/10 00:03:53;;;;;;;;;5.67;4.00;;;;;23.44;51.81;101877.75;5014958;28;45560;-40
2023/07/10 00:06:18;;;;;;;;;6.00;4.33;;;;;23.41;52.39;101880.75;5015226;28;45546;-40
2023/07/10 00:08:43;;;;;;;;;6.67;3.00;;;;;23.38;52.68;101877.44;5015757;28;45313;-40
2023/07/10 00:11:38;;;;;;;;;6.33;6.33;;;;;23.33;53.07;101885.13;5013609;28;63205;-40
2023/07/10 00:14:05;;;;;;;;;5.67;5.00;;;;;23.29;53.48;101882.66;5015927;28;65009;-40
2023/07/10 00:16:31;;;;;;;;;10.00;6.00;;;;;23.26;54.00;101885.63;5013241;28;45674;-41
2023/07/10 00:18:56;;;;;;;;;5.00;5.00;;;;;23.22;54.85;101886.91;5015114;28;67535;-40
2023/07/10 00:21:22;;;;;;;;;9.00;6.33;;;;;23.20;55.01;101888.88;5016974;28;72744;-40
2023/07/10 00:23:47;;;;;;;;;8.00;7.67;;;;;23.18;54.93;101887.28;5011316;28;65515;-40
2023/07/10 00:26:33;;;;;;;;;8.00;7.00;;;;;23.15;55.32;101899.28;5015403;28;45608;-40
2023/07/10 00:29:03;;;;;;;;;9.33;7.00;;;;;23.10;55.23;101893.34;5015647;28;45373;-40
2023/07/10 00:31:28;;;;;;;;;9.00;8.00;;;;;23.06;55.55;101897.31;5012735;28;45447;-40
2023/07/10 00:33:54;;;;;;;;;8.00;6.67;;;;;23.01;55.82;101892.31;5013828;28;67260;-40
2023/07/10 00:36:33;;;;;;;;;8.67;8.33;;;;;23.00;55.95;101889.72;5012456;28;50488;-40
2023/07/10 00:39:22;;;;;;;;;12.00;10.67;;;;;22.95;56.05;101887.41;5020449;28;46317;-40
2023/07/10 00:41:59;;;;;;;;;7.67;7.67;;;;;22.93;56.42;101894.81;5014649;28;46894;-40
2023/07/10 00:44:31;;;;;;;;;9.33;9.33;;;;;22.88;56.66;101888.91;5008840;28;45443;-40
2023/07/10 00:47:00;;;;;;;;;11.00;7.67;;;;;22.87;57.00;101895.34;5012626;28;45554;-46
2023/07/10 00:49:38;;;;;;;;;13.33;9.67;;;;;22.83;57.10;101892.03;5012095;28;46300;-40
2023/07/10 00:52:14;;;;;;;;;10.67;10.33;;;;;22.80;57.23;101895.00;5014047;28;45447;-40
2023/07/10 00:54:43;;;;;;;;;10.00;8.00;;;;;22.77;57.68;101889.84;5014597;28;45225;-40
2023/07/10 00:57:18;;;;;;;;;7.67;7.67;;;;;22.74;57.61;101887.41;5018496;28;45622;-42
2023/07/10 00:59:44;;;;;;;;;8.67;7.67;;;;;22.70;58.02;101878.66;5014302;28;45561;-40
2023/07/10 01:02:12;;;;;;;;;10.67;8.67;;;;;22.67;58.15;101886.19;5013865;28;45581;-40
2023/07/10 01:04:39;;;;;;;;;6.67;6.67;;;;;22.65;58.21;101882.75;5010301;28;45757;-40
2023/07/10 01:07:13;;;;;;;;;10.33;9.00;;;;;22.62;58.72;101878.47;5018195;28;45491;-40
2023/07/10 01:09:44;;;;;;;;;8.67;7.33;;;;;22.57;58.82;101876.13;5017305;28;45665;-40
2023/07/10 01:12:10;;;;;;;;;7.00;7.00;;;;;22.55;58.52;101877.25;5014521;28;45533;-40
2023/07/10 01:14:35;;;;;;;;;8.00;7.00;;;;;22.51;58.36;101876.63;5022155;28;66587;-40
2023/07/10 01:17:05;;;;;;;;;6.67;6.00;;;;;22.49;58.87;101869.63;5019861;28;45429;-40
2023/07/10 01:19:31;;;;;;;;;7.67;7.00;;;;;22.46;58.74;101873.44;5013315;28;45503;-40
2023/07/10 01:21:56;;;;;;;;;6.00;6.00;;;;;22.43;59.12;101873.72;5014016;28;45351;-40
2023/07/10 01:24:21;;;;;;;;;8.00;7.00;;;;;22.41;59.19;101879.25;5016207;28;68176;-40
2023/07/10 01:26:47;;;;;;;;;9.00;8.00;;;;;22.37;59.30;101876.94;5017735;28;45450;-40
2023/07/10 01:29:18;;;;;;;;;7.33;6.00;;;;;22.35;59.34;101878.88;5015566;28;68996;-40
2023/07/10 01:31:44;;;;;;;;;2.00;2.00;;;;;22.31;59.48;101886.41;5019699;28;45323;-40
2023/07/10 01:34:10;;;;;;;;;5.00;5.00;;;;;22.27;58.74;101882.25;5020092;28;68445;-40
2023/07/10 01:36:37;;;;;;;;;7.67;6.33;;;;;22.23;58.97;101887.03;5016998;28;63339;-40
2023/07/10 01:39:27;;;;;;;;;4.00;4.00;;;;;22.19;60.23;101882.00;5015266;28;75033;-40
2023/07/10 01:41:52;;;;;;;;;8.00;6.33;;;;;22.18;59.84;101893.84;5024658;28;45450;-40
2023/07/10 01:44:27;;;;;;;;;3.67;3.67;;;;;22.18;60.11;101883.00;5020086;28;68789;-40
2023/07/10 01:46:52;;;;;;;;;7.67;6.00;;;;;22.17;60.01;101892.09;5018811;28;45832;-40
2023/07/10 01:49:22;;;;;;;;;5.00;5.00;;;;;22.15;60.35;101892.25;5019876;28;45312;-41
2023/07/10 01:51:48;;;;;;;;;6.00;6.00;;;;;22.13;60.68;101888.78;5021184;28;45399;-40
2023/07/10 01:54:15;;;;;;;;;5.33;5.33;;;;;22.13;60.25;101888.78;5017828;28;54242;-40
2023/07/10 01:56:40;;;;;;;;;5.33;4.33;;;;;22.11;60.39;101891.63;5016767;28;45390;-40
2023/07/10 01:59:05;;;;;;;;;4.33;4.33;;;;;22.07;60.35;101892.88;5010144;28;45443;-40
2023/07/10 02:01:31;;;;;;;;;6.67;4.67;;;;;22.04;61.07;101886.84;5018032;28;72929;-40
2023/07/10 02:03:56;;;;;;;;;5.33;5.33;;;;;22.02;61.13;101888.78;5019294;28;67400;-40
2023/07/10 02:06:21;;;;;;;;;6.33;5.33;;;;;21.98;61.23;101894.47;5013974;28;66456;-40
2023/07/10 02:08:47;;;;;;;;;5.67;5.67;;;;;21.96;61.41;101890.16;5019899;28;46149;-40
2023/07/10 02:11:13;;;;;;;;;5.00;5.00;;;;;21.94;60.99;101884.00;5018290;28;45451;-40
2023/07/10 02:13:38;;;;;;;;;8.67;5.00;;;;;21.92;61.07;101892.25;5016540;28;45368;-40
2023/07/10 02:16:04;;;;;;;;;6.00;6.00;;;;;21.90;61.45;101896.06;5012819;28;45487;-40
2023/07/10 02:18:30;;;;;;;;;5.67;4.00;;;;;21.88;61.23;101888.09;5016066;28;45413;-40
2023/07/10 02:20:55;;;;;;;;;4.00;4.00;;;;;21.87;61.62;101896.34;5012681;28;45358;-40
2023/07/10 02:23:21;;;;;;;;;3.00;3.00;;;;;21.84;61.32;101891.16;5011991;28;67415;-40
2023/07/10 02:25:46;;;;;;;;;6.67;5.00;;;;;21.80;60.92;101896.81;5019444;28;46375;-40
2023/07/10 02:28:12;;;;;;;;;4.00;4.00;;;;;21.79;60.79;101891.53;5016495;28;58885;-40
2023/07/10 02:30:38;;;;;;;;;5.00;5.00;;;;;21.75;61.22;101882.78;5011983;28;50266;-40
2023/07/10 02:33:03;;;;;;;;;4.33;4.33;;;;;21.73;61.08;101886.59;5017426;28;45863;-40
2023/07/10 02:35:28;;;;;;;;;4.00;4.00;;;;;21.70;61.70;101892.28;5015823;28;45813;-40
2023/07/10 02:37:54;;;;;;;;;5.25;4.00;;;;;21.67;61.47;101892.50;5015947;28;46087;-40
2023/07/10 02:40:19;;;;;;;;;5.00;4.00;;;;;21.64;61.41;101891.78;5017058;28;70127;-40
2023/07/10 02:42:44;;;;;;;;;4.33;4.33;;;;;21.62;61.41;101899.16;5014198;28;66442;-40
2023/07/10 02:45:10;;;;;;;;;7.00;7.00;;;;;21.59;61.69;101898.53;5012873;28;45384;-40
2023/07/10 02:47:35;;;;;;;;;3.67;3.67;;;;;21.56;62.00;101901.50;5013261;28;72100;-40
2023/07/10 02:50:01;;;;;;;;;7.00;6.00;;;;;21.53;61.92;101902.56;5013327;28;69936;-40
2023/07/10 02:52:26;;;;;;;;;7.33;6.00;;;;;21.51;62.21;101903.66;5017787;28;45587;-40
2023/07/10 02:54:51;;;;;;;;;5.00;4.67;;;;;21.47;62.07;101901.22;5018626;28;47082;-40
2023/07/10 02:57:17;;;;;;;;;7.00;6.00;;;;;21.46;62.19;101915.72;5015835;28;73530;-40
2023/07/10 02:59:42;;;;;;;;;6.00;5.00;;;;;21.46;62.13;101909.47;5015297;28;70674;-40
2023/07/10 03:02:07;;;;;;;;;9.00;7.33;;;;;21.44;61.72;101912.28;5016616;28;67769;-40
2023/07/10 03:04:32;;;;;;;;;8.00;6.00;;;;;21.43;62.34;101912.41;5011530;28;59681;-40
2023/07/10 03:06:58;;;;;;;;;4.00;4.00;;;;;21.41;62.11;101912.53;5015662;28;64921;-40
2023/07/10 03:09:23;;;;;;;;;6.67;5.67;;;;;21.42;61.84;101911.53;5015400;28;56019;-40
2023/07/10 03:11:48;;;;;;;;;7.00;5.33;;;;;21.40;62.23;101916.22;5016134;28;66639;-40
2023/07/10 03:14:14;;;;;;;;;7.00;5.00;;;;;21.39;62.43;101910.91;5017918;28;66946;-40
2023/07/10 03:16:39;;;;;;;;;8.67;6.00;;;;;21.39;61.84;101916.34;5017056;28;71543;-40
2023/07/10 03:19:05;;;;;;;;;4.33;4.33;;;;;21.38;61.98;101911.91;5018206;28;45499;-40
2023/07/10 03:21:30;;;;;;;;;4.33;4.33;;;;;21.39;62.39;101913.63;5016803;28;46475;-40
2023/07/10 03:23:55;;;;;;;;;4.00;4.00;;;;;21.40;62.27;101910.78;5017006;28;70304;-40
2023/07/10 03:26:21;;;;;;;;;8.33;5.67;;;;;21.41;61.86;101914.38;5012950;28;68470;-40
2023/07/10 03:28:46;;;;;;;;;5.00;5.00;;;;;21.39;62.45;101914.47;5014143;28;72825;-40
2023/07/10 03:31:11;;;;;;;;;7.00;7.00;;;;;21.39;62.15;101919.03;5014420;28;45383;-40
2023/07/10 03:33:37;;;;;;;;;5.00;5.00;;;;;21.38;62.32;101917.31;5017318;28;68614;-40
2023/07/10 03:36:06;;;;;;;;;4.00;4.00;;;;;21.37;62.86;101915.56;5017407;28;47350;-40
2023/07/10 03:38:32;;;;;;;;;5.00;5.00;;;;;21.33;61.81;101917.69;5009374;28;45638;-40
2023/07/10 03:40:58;;;;;;;;;5.33;5.00;;;;;21.29;62.49;101921.63;5014298;28;45448;-40
2023/07/10 03:43:27;;;;;;;;;6.00;5.00;;;;;21.26;63.03;101920.00;5016130;28;45529;-40
2023/07/10 03:45:54;;;;;;;;;4.67;4.67;;;;;21.26;62.93;101922.72;5012742;28;46978;-40
2023/07/10 03:48:19;;;;;;;;;9.00;5.33;;;;;21.27;62.85;101927.13;5008483;28;45478;-40
2023/07/10 03:50:44;;;;;;;;;8.00;6.67;;;;;21.28;63.13;101925.31;5017023;28;61320;-40
2023/07/10 03:53:10;;;;;;;;;5.33;4.00;;;;;21.30;63.44;101932.31;5014399;28;61996;-40
2023/07/10 03:55:35;;;;;;;;;7.00;6.00;;;;;21.31;63.29;101938.56;5013173;28;69777;-40
2023/07/10 03:58:00;;;;;;;;;6.33;3.67;;;;;21.32;62.99;101940.31;5013881;28;70062;-40
2023/07/10 04:00:25;;;;;;;;;6.33;5.33;;;;;21.31;62.60;101944.88;5016021;28;45419;-40
2023/07/10 04:02:51;;;;;;;;;8.33;4.33;;;;;21.31;62.68;101944.88;5012843;28;65395;-40
2023/07/10 04:05:16;;;;;;;;;4.33;4.33;;;;;21.31;62.99;101944.88;5012905;28;74094;-40
2023/07/10 04:07:41;;;;;;;;;5.00;5.00;;;;;21.29;63.21;101945.97;5014843;28;45502;-40
2023/07/10 04:10:07;;;;;;;;;5.33;4.00;;;;;21.27;62.76;101947.91;5013581;28;68397;-40
2023/07/10 04:12:32;;;;;;;;;3.67;2.33;;;;;21.23;63.43;101947.28;5013876;28;45404;-40
2023/07/10 04:14:58;;;;;;;;;9.00;5.00;;;;;21.22;63.09;101950.97;5015696;28;71400;-40
2023/07/10 04:17:23;;;;;;;;;4.00;4.00;;;;;21.22;63.51;101948.25;5010190;28;45485;-40
2023/07/10 04:19:48;;;;;;;;;8.33;5.33;;;;;21.21;62.94;101953.78;5017363;28;65724;-40
2023/07/10 04:22:14;;;;;;;;;5.00;3.67;;;;;21.21;63.40;101948.38;5008208;28;46488;-40
2023/07/10 04:24:39;;;;;;;;;5.00;4.00;;;;;21.21;63.16;101954.69;5008283;28;65683;-40
2023/07/10 04:27:05;;;;;;;;;5.00;5.00;;;;;21.23;63.21;101962.66;5008023;28;68094;-40
2023/07/10 04:29:30;;;;;;;;;3.33;2.67;;;;;21.23;63.52;101966.22;5012329;28;45379;-40
2023/07/10 04:31:55;;;;;;;;;5.00;4.00;;;;;21.24;63.67;101964.41;5015844;28;68812;-40
2023/07/10 04:34:21;;;;;;;;;5.00;4.00;;;;;21.24;63.22;101967.94;5013111;28;68727;-40
2023/07/10 04:36:46;;;;;;;;;3.67;2.67;;;;;21.24;63.32;101969.81;5011712;28;45495;-40
2023/07/10 04:39:11;;;;;;;;;4.67;4.33;;;;;21.24;63.03;101969.81;5015189;28;45273;-40
2023/07/10 04:41:37;;;;;;;;;6.00;5.00;;;;;21.28;63.44;101972.16;5011438;28;45301;-40
2023/07/10 04:44:04;;;;;;;;;4.00;4.00;;;;;21.31;62.82;101968.34;5017322;28;47020;-40
2023/07/10 04:46:29;;;;;;;;;4.33;4.00;;;;;21.33;63.13;101979.91;5013374;28;45414;-40
2023/07/10 04:48:54;;;;;;;;;6.00;4.67;;;;;21.38;62.78;101971.44;5013730;28;45403;-40
2023/07/10 04:51:20;;;;;;;;;5.33;4.00;;;;;21.39;62.99;101974.00;5011011;28;67484;-40
2023/07/10 04:53:46;;;;;;;;;6.00;6.00;;;;;21.43;63.48;101977.34;5003829;28;46215;-40
2023/07/10 04:56:13;;;;;;;;;4.00;4.00;;;;;21.47;62.96;101979.72;5008588;28;45616;-40
2023/07/10 04:58:50;;;;;;;;;5.67;4.67;;;;;21.52;63.11;101981.19;5007391;28;45281;-40
2023/07/10 05:01:17;;;;;;;;;8.00;5.67;;;;;21.56;63.30;101980.00;5013120;28;45389;-39
2023/07/10 05:03:42;;;;;;;;;5.00;3.00;;;;;21.59;63.35;101980.63;5004782;28;46200;-39
2023/07/10 05:06:07;;;;;;;;;4.00;3.67;;;;;21.63;62.81;101983.97;5014932;28;45411;-40
2023/07/10 05:08:33;;;;;;;;;5.67;5.00;;;;;21.69;62.76;101979.88;5008693;28;63879;-40
2023/07/10 05:10:58;;;;;;;;;4.00;4.00;;;;;21.69;62.34;101982.59;5012685;28;45560;-40
2023/07/10 05:13:26;;;;;;;;;6.00;6.00;;;;;21.72;62.20;101982.34;5009962;28;45636;-40
2023/07/10 05:15:52;;;;;;;;;4.67;4.67;;;;;21.72;62.08;101982.34;5016128;28;45434;-40
2023/07/10 05:18:17;;;;;;;;;9.67;5.33;;;;;21.73;62.00;101979.53;5015118;28;45806;-40
2023/07/10 05:20:44;;;;;;;;;4.67;4.00;;;;;21.80;61.42;101990.75;5016671;28;45661;-40
2023/07/10 05:23:09;;;;;;;;;3.00;3.00;;;;;21.88;61.79;101991.00;5015886;28;46232;-40
2023/07/10 05:25:35;;;;;;;;;3.67;3.67;;;;;21.96;61.03;101985.81;5009360;28;45360;-40
2023/07/10 05:28:01;;;;;;;;;3.00;3.00;;;;;22.04;60.99;101981.63;5017354;28;45269;-40
2023/07/10 05:30:27;;;;;;;;;4.00;3.00;;;;;22.11;60.39;101983.72;5014081;28;45430;-40
2023/07/10 05:32:53;;;;;;;;;5.33;5.33;;;;;22.18;59.70;101973.25;5016170;28;45553;-40
2023/07/10 05:35:18;;;;;;;;;1.00;1.00;;;;;22.25;59.86;101977.19;5016341;28;45841;-40
2023/07/10 05:37:44;;;;;;;;;5.00;4.00;;;;;22.34;59.63;101981.00;5015741;28;63788;-40
2023/07/10 05:40:09;;;;;;;;;4.33;4.00;;;;;22.42;58.92;101984.00;5005349;28;64389;-40
2023/07/10 05:42:34;;;;;;;;;4.00;4.00;;;;;22.47;58.32;101986.31;5016379;28;47051;-40
2023/07/10 05:45:00;;;;;;;;;6.33;4.33;;;;;22.46;58.14;101985.44;5018199;28;69571;-40
2023/07/10 05:47:25;;;;;;;;;4.00;3.67;;;;;22.48;58.30;101989.91;5016647;28;67348;-40
2023/07/10 05:49:50;;;;;;;;;6.00;3.00;;;;;22.51;57.94;101982.34;5019851;28;68891;-39
2023/07/10 05:52:16;;;;;;;;;3.00;2.00;;;;;22.54;57.52;101982.13;5017801;28;68408;-39
2023/07/10 05:54:41;;;;;;;;;2.67;2.67;;;;;22.55;57.55;101982.97;5017739;28;66597;-40
2023/07/10 05:57:06;;;;;;;;;6.33;4.33;;;;;22.63;57.62;101985.88;5020871;28;45383;-40
2023/07/10 05:59:32;;;;;;;;;5.33;4.00;;;;;22.70;57.28;101986.25;5016489;28;50461;-39
2023/07/10 06:01:57;;;;;;;;;6.25;4.00;;;;;22.77;57.46;101984.75;5016080;28;67919;-39
2023/07/10 06:04:23;;;;;;;;;2.00;2.00;;;;;22.86;56.50;101978.56;5014766;28;61376;-40
2023/07/10 06:06:48;;;;;;;;;4.67;3.67;;;;;22.89;56.35;101985.56;5017819;28;45344;-39
2023/07/10 06:09:14;;;;;;;;;5.67;4.33;;;;;22.89;55.95;101980.13;5017398;28;45530;-40
2023/07/10 06:11:40;;;;;;;;;4.00;3.33;;;;;22.93;56.06;101985.19;5013510;28;46479;-39
2023/07/10 06:14:06;;;;;;;;;3.67;3.67;;;;;23.04;55.97;101984.28;5013161;28;45340;-40
2023/07/10 06:16:31;;;;;;;;;4.00;3.00;;;;;23.12;55.86;101987.19;5010836;28;45670;-40
2023/07/10 06:18:56;;;;;;;;;4.00;4.00;;;;;23.23;55.47;101985.44;5018218;28;45348;-39
2023/07/10 06:21:22;;;;;;;;;5.00;4.67;;;;;23.36;55.31;101985.25;5019040;28;73247;-39
2023/07/10 06:23:47;;;;;;;;;4.33;4.33;;;;;23.37;55.09;101993.25;5017105;28;45279;-40
2023/07/10 06:26:12;;;;;;;;;3.67;3.67;;;;;23.42;54.76;101991.00;5020206;28;45561;-41
2023/07/10 06:28:38;;;;;;;;;4.00;4.00;;;;;23.51;54.47;101980.38;5015149;28;45309;-40
2023/07/10 06:31:06;;;;;;;;;4.00;2.33;;;;;23.63;54.38;101982.00;5014897;28;70850;-39
2023/07/10 06:33:32;;;;;;;;;3.00;3.00;;;;;23.76;54.31;101981.78;5017448;28;45340;-41
2023/07/10 06:35:58;;;;;;;;;5.00;4.00;;;;;23.76;53.79;101979.94;5020412;28;45450;-40
2023/07/10 06:38:24;;;;;;;;;6.67;4.00;;;;;23.90;53.76;101978.75;5018620;28;45563;-40
2023/07/10 06:40:50;;;;;;;;;3.25;3.25;;;;;25.54;51.74;101979.25;5019211;28;70658;-40
2023/07/10 06:43:16;;;;;;;;;5.00;3.67;;;;;28.25;50.13;101982.94;5018087;28;45698;-40
2023/07/10 06:45:43;;;;;;;;;4.00;4.00;;;;;30.83;45.00;101975.94;5011887;28;45531;-40
2023/07/10 06:48:09;;;;;;;;;3.00;3.00;;;;;33.08;40.69;101971.22;5017172;28;45557;-40
2023/07/10 06:50:34;;;;;;;;;4.67;4.00;;;;;34.92;37.84;101973.66;5017614;28;45614;-41
2023/07/10 06:52:59;;;;;;;;;7.00;3.00;;;;;36.46;35.76;101975.28;5016842;28;65191;-41
2023/07/10 06:55:25;;;;;;;;;3.50;2.00;;;;;37.66;33.08;101974.31;5017633;28;67448;-41
2023/07/10 06:57:50;;;;;;;;;3.00;3.00;;;;;38.90;31.14;101980.59;5017952;28;45542;-43
2023/07/10 07:00:17;;;;;;;;;2.00;2.00;;;;;39.89;27.77;101975.44;5015918;28;69215;-41
2023/07/10 07:02:42;;;;;;;;;3.25;2.50;;;;;40.60;27.61;101973.25;5018731;28;45602;-41
2023/07/10 07:05:08;;;;;;;;;3.50;3.50;;;;;41.09;26.48;101971.84;5018351;28;45421;-42
2023/07/10 07:07:35;;;;;;;;;4.75;3.50;;;;;41.76;25.57;101975.59;5018871;28;45577;-43
2023/07/10 07:10:00;;;;;;;;;2.50;2.25;;;;;42.31;23.58;101983.03;5019719;28;46192;-42
2023/07/10 07:12:26;;;;;;;;;5.00;3.25;;;;;42.75;25.15;101981.22;5011734;28;70655;-42
2023/07/10 07:14:51;;;;;;;;;5.00;2.00;;;;;43.31;24.18;101980.81;5019684;28;45375;-43
2023/07/10 07:17:17;;;;;;;;;3.00;3.00;;;;;43.90;23.35;101976.97;5004660;28;50852;-42
2023/07/10 07:19:45;;;;;;;;;2.50;2.50;;;;;44.37;23.39;101969.56;4998043;28;71466;-43
2023/07/10 07:22:11;;;;;;;;;2.75;2.75;;;;;44.83;21.96;101976.34;5000663;28;45506;-43
2023/07/10 07:24:36;;;;;;;;;1.50;1.25;;;;;45.23;20.58;101967.03;5017870;28;45398;-44
2023/07/10 07:27:01;;;;;;;;;4.00;3.00;;;;;44.97;20.73;101977.44;5012561;28;56555;-42
2023/07/10 07:29:27;;;;;;;;;1.75;1.75;;;;;45.29;20.43;101969.84;5005241;28;45487;-42
2023/07/10 07:31:53;;;;;;;;;2.75;2.00;;;;;45.85;21.08;101972.44;5015377;28;45763;-43
2023/07/10 07:34:18;;;;;;;;;4.00;1.75;;;;;46.34;19.58;101968.00;5012121;28;45345;-44
2023/07/10 07:36:44;;;;;;;;;3.00;3.00;;;;;46.77;18.72;101970.22;5019694;28;45414;-44
2023/07/10 07:39:09;;;;;;;;;3.00;3.00;;;;;46.79;18.20;101973.53;5017142;28;75696;-41
2023/07/10 07:41:34;;;;;;;;;5.00;3.50;;;;;47.27;19.14;101971.97;5017859;28;45443;-40
2023/07/10 07:44:01;;;;;;;;;3.25;3.25;;;;;47.89;17.38;101976.88;5014261;28;68053;-42
2023/07/10 07:46:27;;;;;;;;;5.00;2.00;;;;;48.27;18.16;101972.13;5017340;28;45606;-43
2023/07/10 07:48:53;;;;;;;;;1.75;1.50;;;;;48.38;15.99;101961.50;5019053;28;46531;-42
2023/07/10 07:51:18;;;;;;;;;1.50;1.50;;;;;48.61;16.89;101967.38;5018640;28;45777;-42
2023/07/10 07:53:43;;;;;;;;;2.00;2.00;;;;;49.35;16.91;101966.59;5018153;28;64808;-42
2023/07/10 07:56:09;;;;;;;;;1.50;1.50;;;;;49.85;15.99;101956.50;5018114;28;45384;-41
2023/07/10 07:58:34;;;;;;;;;4.50;2.00;;;;;50.41;15.58;101958.03;5018872;28;45361;-43
2023/07/10 08:01:00;;;;;;;;;2.75;2.75;;;;;50.85;15.42;101949.84;5017293;28;73106;-44
2023/07/10 08:03:26;;;;;;;;;1.75;1.75;;;;;51.19;13.80;101944.66;4997330;28;45502;-43
2023/07/10 08:05:52;;;;;;;;;0.25;0.25;;;;;51.09;14.91;101955.13;5013210;28;45471;-44
2023/07/10 08:08:17;;;;;;;;;3.00;2.00;;;;;51.22;13.95;101946.84;5016088;28;67732;-41
2023/07/10 08:10:47;;;;;;;;;3.50;2.00;;;;;51.40;14.23;101948.59;5017399;28;45583;-42
2023/07/10 08:13:14;;;;;;;;;1.25;1.25;;;;;51.64;14.22;101941.63;5018889;28;45249;-41
2023/07/10 08:15:40;;;;;;;;;2.75;1.75;;;;;51.78;14.49;101947.19;5017067;28;45501;-43
2023/07/10 08:18:06;;;;;;;;;2.00;2.00;;;;;51.74;13.71;101941.34;5018439;28;45363;-43
2023/07/10 08:20:32;;;;;;;;;3.75;1.00;;;;;51.77;12.62;101942.66;5016204;28;45379;-41
2023/07/10 08:22:57;;;;;;;;;7.25;2.00;;;;;51.72;13.15;101948.47;5015783;28;45399;-42
2023/07/10 08:25:23;;;;;;;;;0.00;0.00;;;;;51.28;13.04;101945.50;5014638;28;45457;-42
2023/07/10 08:27:48;;;;;;;;;1.75;1.00;;;;;51.31;12.37;101942.03;5015123;28;60780;-41
2023/07/10 08:30:16;;;;;;;;;2.00;1.00;;;;;51.30;12.69;101937.53;5017186;28;67790;-45
2023/07/10 08:32:41;;;;;;;;;1.25;1.25;;;;;51.53;12.74;101940.25;5018662;28;45558;-44
2023/07/10 08:35:07;;;;;;;;;1.00;1.00;;;;;51.30;11.93;101948.84;5015963;28;68357;-43
2023/07/10 08:37:36;;;;;;;;;2.25;1.00;;;;;51.15;12.69;101949.31;5016959;28;45387;-42
2023/07/10 08:40:02;;;;;;;;;1.00;1.00;;;;;51.29;11.22;101939.53;5013225;28;46400;-42
2023/07/10 08:42:30;;;;;;;;;1.00;1.00;;;;;51.46;11.75;101943.59;5010266;28;45403;-43
2023/07/10 08:44:55;;;;;;;;;4.50;0.75;;;;;51.73;12.75;101941.63;5018013;28;45396;-42
2023/07/10 08:47:24;;;;;;;;;1.25;0.75;;;;;51.89;11.58;101947.69;5015123;28;60775;-41
2023/07/10 08:50:17;;;;;;;;;0.50;0.50;;;;;52.10;11.38;101942.19;5008313;28;45440;-42
2023/07/10 08:53:02;;;;;;;;;0.75;0.75;;;;;52.20;11.31;101941.03;5013947;28;45446;-43
2023/07/10 08:55:43;;;;;;;;;1.50;0.00;;;;;52.25;11.00;101940.84;5010034;28;45606;-44
2023/07/10 08:58:21;;;;;;;;;0.75;0.25;;;;;51.98;11.52;101936.34;5015351;28;46253;-43
2023/07/10 09:00:48;;;;;;;;;1.00;1.00;;;;;52.12;11.35;101939.03;5008069;28;45483;-44
2023/07/10 09:03:31;;;;;;;;;0.00;0.00;;;;;52.47;11.93;101939.00;5015407;28;45367;-44
2023/07/10 09:05:57;;;;;;;;;1.00;1.00;;;;;52.70;11.43;101926.25;5015903;28;45327;-46
2023/07/10 09:08:23;;;;;;;;;0.00;0.00;;;;;52.76;10.33;101930.59;5016719;28;46106;-45
2023/07/10 09:10:52;;;;;;;;;0.00;0.00;;;;;52.20;10.66;101919.16;5016250;28;62395;-43
2023/07/10 09:13:31;;;;;;;;;0.75;0.75;;;;;51.53;11.24;101924.13;5015533;28;45399;-43
2023/07/10 09:15:57;;;;;;;;;0.00;0.00;;;;;51.62;10.90;101927.78;5016047;28;45546;-42
2023/07/10 09:18:43;;;;;;;;;6.25;0.75;;;;;51.84;10.09;101928.84;5018941;28;45288;-42
2023/07/10 09:21:25;;;;;;;;;1.00;0.00;;;;;51.47;11.26;101919.78;5021401;28;45379;-45
2023/07/10 09:23:50;;;;;;;;;0.00;0.00;;;;;51.09;10.91;101923.97;5021020;28;45418;-43
2023/07/10 09:26:18;;;;;;;;;0.00;0.00;;;;;50.42;11.06;101930.56;5019791;28;46047;-44
2023/07/10 09:28:54;;;;;;;;;2.00;0.00;;;;;50.51;11.62;101928.63;5020843;28;47222;-42
2023/07/10 09:31:42;;;;;;;;;4.25;0.25;;;;;51.07;10.83;101934.81;5022457;28;45848;-44
2023/07/10 09:34:09;;;;;;;;;0.00;0.00;;;;;51.31;10.52;101922.22;5019009;28;45450;-43
2023/07/10 09:36:35;;;;;;;;;0.00;0.00;;;;;51.56;11.34;101928.28;5014603;28;45337;-45
2023/07/10 09:39:01;;;;;;;;;1.00;0.00;;;;;51.85;10.24;101921.16;5016130;28;75393;-43
2023/07/10 09:41:28;;;;;;;;;0.75;0.75;;;;;51.94;11.62;101916.31;4999363;28;45459;-43
2023/07/10 09:44:04;;;;;;;;;0.00;0.00;;;;;51.45;10.38;101910.75;5018862;28;45313;-45
2023/07/10 09:46:32;;;;;;;;;0.75;0.50;;;;;51.20;10.19;101916.00;5018680;28;45669;-43
2023/07/10 09:49:03;;;;;;;;;2.00;1.00;;;;;50.92;10.74;101919.03;5020638;28;46331;-45
2023/07/10 09:51:29;;;;;;;;;0.00;0.00;;;;;51.06;11.03;101913.31;5020409;28;45760;-43
2023/07/10 09:54:06;;;;;;;;;0.50;0.25;;;;;50.56;10.83;101910.69;5017712;28;45444;-43
2023/07/10 09:56:38;;;;;;;;;0.50;0.50;;;;;49.90;10.61;101913.97;5019696;28;45435;-44
2023/07/10 09:59:33;;;;;;;;;0.00;0.00;;;;;49.24;11.64;101911.44;5021391;28;47008;-44
2023/07/10 10:02:21;;;;;;;;;0.00;0.00;;;;;48.95;11.13;101918.25;5010487;28;45728;-44
2023/07/10 10:05:12;;;;;;;;;0.00;0.00;;;;;48.86;11.55;101918.09;5020293;28;45324;-44
2023/07/10 10:07:42;;;;;;;;;0.75;0.25;;;;;49.18;11.45;101905.91;5016158;28;45364;-45
2023/07/10 10:10:32;;;;;;;;;0.00;0.00;;;;;48.44;10.73;101917.16;5014858;28;46301;-42
2023/07/10 10:13:01;;;;;;;;;2.75;1.00;;;;;47.29;11.20;101907.75;5014223;28;45505;-44
2023/07/10 10:15:43;;;;;;;;;0.00;0.00;;;;;46.30;12.77;101916.31;5018231;28;45776;-43
2023/07/10 10:18:30;;;;;;;;;2.75;1.00;;;;;46.51;12.23;101905.72;5019942;28;45346;-43
2023/07/10 10:20:55;;;;;;;;;3.00;1.00;;;;;46.65;12.59;101916.28;5010700;28;45525;-44
2023/07/10 10:23:29;;;;;;;;;0.75;0.75;;;;;45.75;12.91;101916.31;5001727;28;73118;-43
2023/07/10 10:26:20;;;;;;;;;1.00;0.00;;;;;44.75;13.39;101905.66;5009805;28;45779;-43
2023/07/10 10:29:07;;;;;;;;;0.00;0.00;;;;;44.36;13.71;101909.00;5014911;28;46363;-43
2023/07/10 10:31:51;;;;;;;;;0.00;0.00;;;;;44.57;13.40;101912.63;5017483;28;46422;-45
2023/07/10 10:34:39;;;;;;;;;0.50;0.50;;;;;44.05;13.54;101906.13;5013990;28;45237;-44
2023/07/10 10:37:30;;;;;;;;;0.00;0.00;;;;;43.68;14.34;101904.34;5013799;28;45493;-44
2023/07/10 10:39:59;;;;;;;;;0.00;0.00;;;;;43.76;14.43;101889.78;5027581;28;45494;-47
2023/07/10 10:42:49;;;;;;;;;0.00;0.00;;;;;44.22;14.25;101889.06;5014701;28;45606;-50
2023/07/10 10:45:34;;;;;;;;;0.75;0.75;;;;;44.09;14.08;101893.25;5018059;28;45945;-44
2023/07/10 10:48:22;;;;;;;;;2.00;0.75;;;;;44.31;14.00;101894.16;5017026;28;45376;-44
2023/07/10 10:51:10;;;;;;;;;0.00;0.00;;;;;43.77;14.70;101899.06;5018763;28;45360;-45
2023/07/10 10:53:53;;;;;;;;;1.00;1.00;;;;;43.99;14.07;101886.78;5022291;28;45379;-43
2023/07/10 10:56:28;;;;;;;;;0.50;0.50;;;;;44.35;14.03;101898.09;5015362;28;45850;-43
2023/07/10 10:59:13;;;;;;;;;0.00;0.00;;;;;44.27;14.10;101900.28;5017423;28;45374;-44
2023/07/10 11:01:45;;;;;;;;;2.50;0.00;;;;;43.67;13.76;101893.41;5016614;28;45390;-45
2023/07/10 11:04:19;;;;;;;;;1.75;0.00;;;;;43.40;14.08;101888.78;4999882;28;45656;-43
2023/07/10 11:06:49;;;;;;;;;0.50;0.50;;;;;43.56;14.63;101895.31;5018349;28;45993;-45
2023/07/10 11:09:17;;;;;;;;;0.00;0.00;;;;;43.28;14.37;101889.03;5014529;28;45357;-43
2023/07/10 11:11:43;;;;;;;;;1.00;0.00;;;;;43.29;14.55;101887.91;5017985;28;45487;-44
2023/07/10 11:14:10;;;;;;;;;0.00;0.00;;;;;43.21;14.47;101882.81;5018164;28;47658;-43
2023/07/10 11:16:36;;;;;;;;;0.75;0.50;;;;;42.93;14.27;101873.69;5017520;28;45345;-42
2023/07/10 11:19:03;;;;;;;;;0.00;0.00;;;;;42.72;14.68;101872.72;5010398;28;45511;-43
2023/07/10 11:21:30;;;;;;;;;0.00;0.00;;;;;42.28;14.90;101871.78;5011144;28;45543;-43
2023/07/10 11:23:55;;;;;;;;;0.00;0.00;;;;;41.28;14.94;101872.81;5006602;28;46175;-44
2023/07/10 11:26:23;;;;;;;;;0.00;0.00;;;;;40.23;15.56;101867.78;5018462;28;45460;-44
2023/07/10 11:28:49;;;;;;;;;0.00;0.00;;;;;39.69;16.92;101876.50;5009708;28;45571;-42
2023/07/10 11:31:20;;;;;;;;;0.00;0.00;;;;;39.30;16.67;101867.84;5017903;28;45659;-42